createdAt,value
2018-08-13T00:01:41.596Z,99.90
2018-08-13T00:04:13.106Z,99.90
2018-08-13T00:06:44.636Z,99.90
2018-08-13T00:09:22.368Z,99.90
2018-08-13T00:11:54.217Z,99.90
2018-08-13T00:14:25.806Z,99.90
2018-08-13T00:16:57.527Z,99.90
2018-08-13T00:19:28.974Z,99.90
2018-08-13T00:22:00.623Z,99.90
2018-08-13T00:24:32.441Z,99.90
2018-08-13T00:27:03.734Z,99.90
2018-08-13T00:29:35.142Z,99.90
2018-08-13T00:32:06.487Z,99.90
2018-08-13T00:34:37.936Z,99.90
2018-08-13T00:37:09.260Z,99.90
2018-08-13T00:39:40.775Z,99.90
2018-08-13T00:42:12.416Z,99.90
2018-08-13T00:44:43.843Z,99.90
2018-08-13T00:47:15.372Z,99.90
2018-08-13T00:49:46.561Z,99.90
2018-08-13T00:52:18.015Z,99.90
2018-08-13T00:54:49.454Z,99.90
2018-08-13T00:57:20.935Z,99.90
2018-08-13T00:59:52.374Z,99.90
2018-08-13T01:02:23.902Z,99.90
2018-08-13T01:04:55.448Z,99.90
2018-08-13T01:07:26.732Z,99.90
2018-08-13T01:09:58.109Z,99.90
2018-08-13T01:12:29.919Z,99.90
2018-08-13T01:15:01.434Z,99.90
2018-08-13T01:17:32.847Z,99.90
2018-08-13T01:20:04.394Z,99.90
2018-08-13T01:22:35.899Z,99.90
2018-08-13T01:25:09.270Z,99.90
2018-08-13T01:27:40.906Z,99.90
2018-08-13T01:30:13.749Z,99.90
2018-08-13T01:32:45.303Z,99.90
2018-08-13T01:35:16.706Z,99.90
2018-08-13T01:37:48.128Z,99.90
2018-08-13T01:40:19.519Z,99.90
2018-08-13T01:42:51.002Z,99.90
2018-08-13T01:45:22.771Z,99.90
2018-08-13T01:47:54.081Z,99.90
2018-08-13T01:50:25.505Z,99.90
2018-08-13T01:52:57.106Z,99.90
2018-08-13T01:55:28.753Z,99.90
2018-08-13T01:58:00.160Z,99.90
2018-08-13T02:00:32.374Z,99.90
2018-08-13T02:03:03.801Z,99.90
2018-08-13T02:05:35.377Z,99.90
2018-08-13T02:08:07.147Z,99.90
2018-08-13T02:10:38.483Z,99.90
2018-08-13T02:13:09.948Z,99.90
2018-08-13T02:15:41.287Z,99.90
2018-08-13T02:18:12.912Z,99.90
2018-08-13T02:20:44.377Z,99.90
2018-08-13T02:23:15.929Z,99.90
2018-08-13T02:25:47.747Z,99.90
2018-08-13T02:28:19.366Z,99.90
2018-08-13T02:30:50.681Z,99.90
2018-08-13T02:33:21.955Z,99.90
2018-08-13T02:35:53.659Z,99.90
2018-08-13T02:38:25.300Z,99.90
2018-08-13T02:40:56.908Z,99.90
2018-08-13T02:43:28.538Z,99.90
2018-08-13T02:45:59.952Z,99.90
2018-08-13T02:48:31.485Z,99.90
2018-08-13T02:51:03.067Z,99.90
2018-08-13T02:53:34.493Z,99.90
2018-08-13T02:56:05.896Z,99.90
2018-08-13T02:58:37.214Z,99.90
2018-08-13T03:01:09.225Z,99.90
2018-08-13T03:03:40.510Z,99.90
2018-08-13T03:06:12.259Z,99.90
2018-08-13T03:08:43.707Z,99.90
2018-08-13T03:11:15.640Z,99.90
2018-08-13T03:13:47.228Z,99.90
2018-08-13T03:16:18.965Z,99.90
2018-08-13T03:18:51.259Z,99.90
2018-08-13T03:21:22.727Z,99.90
2018-08-13T03:23:54.466Z,99.90
2018-08-13T03:26:25.865Z,99.90
2018-08-13T03:28:57.404Z,99.90
2018-08-13T03:31:28.972Z,99.90
2018-08-13T03:34:00.542Z,99.90
2018-08-13T03:36:32.008Z,99.90
2018-08-13T03:39:03.474Z,99.90
2018-08-13T03:41:35.026Z,99.90
2018-08-13T03:44:06.473Z,99.90
2018-08-13T03:46:38.771Z,99.90
2018-08-13T03:49:11.601Z,99.90
2018-08-13T03:51:43.188Z,99.90
2018-08-13T03:54:14.733Z,99.90
2018-08-13T03:56:46.051Z,99.90
2018-08-13T03:59:17.452Z,99.90
2018-08-13T04:01:48.942Z,99.90
2018-08-13T04:04:20.842Z,99.90
2018-08-13T04:06:52.355Z,99.90
2018-08-13T04:09:23.704Z,99.90
2018-08-13T04:11:54.957Z,99.90
2018-08-13T04:14:26.535Z,99.90
2018-08-13T04:17:01.632Z,99.90
2018-08-13T04:19:34.284Z,99.90
2018-08-13T04:22:06.297Z,99.90
2018-08-13T04:24:37.985Z,99.90
2018-08-13T04:27:09.504Z,99.90
2018-08-13T04:29:41.079Z,99.90
2018-08-13T04:32:12.476Z,99.90
2018-08-13T04:34:44.077Z,99.90
2018-08-13T04:37:15.431Z,99.90
2018-08-13T04:39:47.088Z,99.90
2018-08-13T04:42:18.500Z,99.90
2018-08-13T04:44:49.862Z,99.90
2018-08-13T04:47:21.102Z,99.90
2018-08-13T04:49:52.461Z,99.90
2018-08-13T04:52:23.867Z,99.90
2018-08-13T04:54:55.660Z,99.90
2018-08-13T04:57:27.760Z,99.90
2018-08-13T04:59:59.316Z,99.90
2018-08-13T05:02:30.877Z,99.90
2018-08-13T05:05:02.230Z,99.90
2018-08-13T05:07:33.743Z,99.90
2018-08-13T05:10:05.868Z,99.90
2018-08-13T05:12:37.161Z,99.90
2018-08-13T05:15:09.546Z,99.90
2018-08-13T05:17:40.840Z,99.90
2018-08-13T05:20:12.362Z,99.90
2018-08-13T05:22:43.750Z,99.90
2018-08-13T05:25:15.419Z,99.90
2018-08-13T05:27:46.754Z,99.90
2018-08-13T05:30:18.346Z,99.90
2018-08-13T05:32:49.719Z,99.90
2018-08-13T05:35:21.439Z,99.90
2018-08-13T05:37:52.936Z,99.90
2018-08-13T05:40:24.471Z,99.90
2018-08-13T05:42:55.972Z,99.90
2018-08-13T05:45:27.394Z,99.90
2018-08-13T05:47:58.874Z,99.90
2018-08-13T05:50:31.181Z,99.90
2018-08-13T05:53:02.928Z,99.90
2018-08-13T05:55:34.311Z,99.90
2018-08-13T05:58:05.810Z,99.90
2018-08-13T06:00:37.352Z,99.90
2018-08-13T06:03:09.077Z,99.90
2018-08-13T06:05:40.544Z,99.90
2018-08-13T06:08:12.519Z,99.90
2018-08-13T06:10:44.112Z,99.90
2018-08-13T06:13:15.452Z,99.90
2018-08-13T06:15:47.070Z,99.90
2018-08-13T06:18:18.485Z,99.90
2018-08-13T06:20:49.772Z,99.90
2018-08-13T06:23:21.068Z,99.90
2018-08-13T06:25:52.400Z,99.90
2018-08-13T06:28:25.047Z,99.90
2018-08-13T06:30:56.622Z,99.90
2018-08-13T06:33:27.989Z,99.90
2018-08-13T06:35:59.541Z,99.90
2018-08-13T06:38:31.060Z,99.90
2018-08-13T06:41:02.344Z,99.90
2018-08-13T06:43:33.773Z,99.90
2018-08-13T06:46:05.358Z,99.90
2018-08-13T06:48:36.938Z,99.90
2018-08-13T06:51:08.433Z,99.90
2018-08-13T06:53:40.693Z,99.90
2018-08-13T06:56:12.458Z,99.90
2018-08-13T06:58:43.911Z,99.90
2018-08-13T07:01:15.268Z,99.90
2018-08-13T07:03:46.788Z,99.90
2018-08-13T07:06:18.108Z,99.90
2018-08-13T07:08:49.569Z,99.90
2018-08-13T07:11:21.081Z,99.90
2018-08-13T07:13:52.586Z,99.90
2018-08-13T07:16:24.170Z,99.90
2018-08-13T07:18:55.940Z,99.90
2018-08-13T07:21:27.507Z,99.90
2018-08-13T07:23:59.053Z,99.90
2018-08-13T07:26:30.618Z,99.90
2018-08-13T07:29:02.268Z,99.90
2018-08-13T07:31:33.532Z,99.90
2018-08-13T07:34:04.994Z,99.90
2018-08-13T07:36:36.446Z,99.90
2018-08-13T07:39:10.738Z,99.90
2018-08-13T07:41:42.168Z,99.90
2018-08-13T07:44:13.781Z,99.90
2018-08-13T07:46:45.124Z,99.90
2018-08-13T07:49:16.649Z,99.90
2018-08-13T07:51:48.451Z,99.90
2018-08-13T07:54:19.809Z,99.90
2018-08-13T07:56:51.287Z,99.90
2018-08-13T07:59:23.212Z,99.90
2018-08-13T08:01:55.071Z,99.90
2018-08-13T08:04:26.417Z,99.90
2018-08-13T08:06:58.972Z,99.90
2018-08-13T08:09:30.740Z,99.90
2018-08-13T08:12:02.137Z,99.80
2018-08-13T08:14:33.572Z,99.90
2018-08-13T08:17:04.999Z,99.80
2018-08-13T08:19:36.540Z,99.30
2018-08-13T08:22:08.309Z,99.90
2018-08-13T08:24:39.897Z,99.90
2018-08-13T08:27:11.940Z,99.80
2018-08-13T08:29:43.384Z,99.90
2018-08-13T08:32:14.793Z,99.40
2018-08-13T08:34:46.197Z,98.70
2018-08-13T08:37:17.442Z,98.30
2018-08-13T08:39:49.181Z,98.50
2018-08-13T08:42:20.581Z,97.90
2018-08-13T08:44:52.134Z,97.80
2018-08-13T08:47:23.556Z,98.20
2018-08-13T08:49:55.390Z,98.30
2018-08-13T08:52:26.943Z,99.00
2018-08-13T08:54:58.899Z,99.00
2018-08-13T08:57:30.425Z,98.90
2018-08-13T09:00:02.076Z,98.80
2018-08-13T09:02:33.701Z,98.80
2018-08-13T09:05:05.711Z,98.40
2018-08-13T09:07:37.248Z,99.10
2018-08-13T09:10:09.106Z,99.60
2018-08-13T09:12:40.802Z,98.60
2018-08-13T09:15:15.550Z,98.50
2018-08-13T09:18:02.944Z,97.80
2018-08-13T09:20:50.346Z,96.80
2018-08-13T09:23:37.379Z,96.50
2018-08-13T09:26:24.393Z,95.50
2018-08-13T09:29:11.822Z,96.00
2018-08-13T09:32:22.428Z,95.40
2018-08-13T09:35:15.854Z,95.80
2018-08-13T09:37:47.517Z,95.60
2018-08-13T09:40:19.468Z,96.90
2018-08-13T09:42:51.787Z,96.50
2018-08-13T09:45:23.211Z,97.90
2018-08-13T09:47:54.693Z,98.50
2018-08-13T09:50:27.168Z,98.50
2018-08-13T09:52:58.596Z,98.40
2018-08-13T09:55:30.158Z,97.50
2018-08-13T09:58:01.601Z,96.60
2018-08-13T10:00:37.938Z,96.50
2018-08-13T10:03:10.016Z,96.30
2018-08-13T10:05:41.497Z,96.60
2018-08-13T10:08:12.816Z,96.20
2018-08-13T10:10:44.521Z,96.30
2018-08-13T10:13:15.831Z,95.90
2018-08-13T10:15:47.355Z,96.50
2018-08-13T10:18:18.822Z,97.10
2018-08-13T10:20:50.332Z,97.70
2018-08-13T10:23:21.778Z,97.50
2018-08-13T10:25:53.166Z,98.20
2018-08-13T10:28:24.532Z,97.80
2018-08-13T10:30:55.801Z,97.50
2018-08-13T10:33:27.394Z,97.80
2018-08-13T10:35:58.881Z,97.30
2018-08-13T10:38:30.425Z,97.30
2018-08-13T10:41:02.051Z,96.70
2018-08-13T10:43:33.535Z,97.80
2018-08-13T10:46:05.216Z,98.10
2018-08-13T10:48:36.633Z,97.60
2018-08-13T10:51:08.103Z,97.40
2018-08-13T10:53:39.535Z,97.60
2018-08-13T10:56:11.231Z,97.10
2018-08-13T10:58:43.038Z,97.30
2018-08-13T11:01:14.524Z,97.40
2018-08-13T11:03:45.776Z,98.50
2018-08-13T11:06:17.154Z,98.20
2018-08-13T11:08:48.762Z,98.90
2018-08-13T11:11:20.199Z,98.40
2018-08-13T11:13:52.050Z,98.90
2018-08-13T11:16:23.603Z,99.20
2018-08-13T11:18:54.969Z,98.40
2018-08-13T11:21:26.625Z,98.10
2018-08-13T11:23:58.362Z,97.60
2018-08-13T11:26:29.907Z,97.60
2018-08-13T11:29:01.365Z,97.70
2018-08-13T11:31:32.847Z,97.90
2018-08-13T11:34:04.499Z,98.60
2018-08-13T11:36:36.242Z,99.90
2018-08-13T11:39:11.751Z,99.80
2018-08-13T11:41:43.382Z,99.90
2018-08-13T11:44:14.803Z,99.10
2018-08-13T11:46:46.331Z,99.50
2018-08-13T11:49:18.066Z,99.90
2018-08-13T11:51:49.667Z,99.60
2018-08-13T11:54:21.113Z,99.90
2018-08-13T11:56:52.655Z,99.90
2018-08-13T11:59:24.090Z,99.90
2018-08-13T12:01:55.539Z,99.90
2018-08-13T12:04:26.859Z,99.90
2018-08-13T12:06:58.280Z,99.90
2018-08-13T12:09:29.757Z,99.90
2018-08-13T12:12:01.124Z,99.90
2018-08-13T12:14:32.627Z,99.90
2018-08-13T12:17:04.013Z,99.90
2018-08-13T12:19:35.464Z,99.90
2018-08-13T12:22:06.872Z,99.90
2018-08-13T12:24:38.030Z,99.90
2018-08-13T12:27:09.697Z,99.90
2018-08-13T12:29:41.149Z,99.90
2018-08-13T12:32:12.476Z,99.90
2018-08-13T12:34:44.015Z,99.90
2018-08-13T12:37:15.667Z,99.90
2018-08-13T12:39:47.203Z,99.90
2018-08-13T12:42:18.898Z,99.90
2018-08-13T12:44:50.240Z,99.90
2018-08-13T12:47:21.940Z,99.90
2018-08-13T12:49:53.465Z,99.90
2018-08-13T12:52:25.054Z,99.90
2018-08-13T12:54:56.454Z,99.90
2018-08-13T12:57:28.000Z,99.90
2018-08-13T12:59:59.454Z,99.90
2018-08-13T13:02:30.853Z,99.80
2018-08-13T13:05:02.526Z,99.60
2018-08-13T13:07:34.286Z,99.90
2018-08-13T13:10:06.987Z,99.90
2018-08-13T13:12:38.682Z,99.90
2018-08-13T13:15:12.706Z,99.90
2018-08-13T13:17:44.117Z,99.90
2018-08-13T13:20:22.869Z,99.90
2018-08-13T13:22:54.185Z,99.90
2018-08-13T13:25:25.818Z,99.90
2018-08-13T13:27:57.357Z,99.90
2018-08-13T13:30:28.869Z,99.90
2018-08-13T13:33:00.155Z,99.80
2018-08-13T13:35:31.415Z,99.70
2018-08-13T13:38:03.071Z,99.80
2018-08-13T13:40:34.603Z,99.90
2018-08-13T13:43:06.176Z,99.90
2018-08-13T13:45:38.231Z,99.90
2018-08-13T13:48:09.774Z,99.90
2018-08-13T13:50:41.187Z,99.90
2018-08-13T13:53:12.678Z,99.90
2018-08-13T13:55:43.840Z,99.90
2018-08-13T13:58:15.317Z,99.90
2018-08-13T14:00:46.943Z,99.90
2018-08-13T14:03:18.404Z,99.90
2018-08-13T14:05:49.549Z,99.90
2018-08-13T14:08:21.061Z,99.90
2018-08-13T14:10:52.343Z,99.90
2018-08-13T14:13:23.908Z,99.90
2018-08-13T14:15:55.323Z,99.90
2018-08-13T14:18:26.912Z,99.90
2018-08-13T14:20:58.319Z,99.90
2018-08-13T14:23:29.889Z,99.90
2018-08-13T14:26:01.345Z,99.90
2018-08-13T14:28:32.710Z,99.90
2018-08-13T14:31:04.042Z,99.90
2018-08-13T14:33:35.528Z,99.90
2018-08-13T14:36:06.975Z,99.90
2018-08-13T14:38:38.514Z,99.90
2018-08-13T14:41:10.224Z,99.90
2018-08-13T14:43:41.523Z,99.90
2018-08-13T14:46:13.216Z,99.90
2018-08-13T14:48:44.862Z,99.90
2018-08-13T14:51:16.299Z,99.90
2018-08-13T14:53:47.433Z,99.90
2018-08-13T14:56:18.837Z,99.90
2018-08-13T14:58:50.030Z,99.90
2018-08-13T15:01:21.185Z,99.90
2018-08-13T15:03:52.760Z,99.90
2018-08-13T15:06:24.299Z,99.90
2018-08-13T15:08:56.235Z,99.90
2018-08-13T15:11:32.635Z,99.90
2018-08-13T15:14:04.575Z,99.90
2018-08-13T15:16:35.941Z,99.90
2018-08-13T15:19:07.688Z,99.90
2018-08-13T15:21:39.101Z,99.90
2018-08-13T15:24:10.576Z,99.90
2018-08-13T15:26:42.639Z,99.90
2018-08-13T15:29:13.890Z,99.90
2018-08-13T15:31:45.299Z,99.90
2018-08-13T15:34:16.893Z,99.90
2018-08-13T15:36:48.128Z,99.90
2018-08-13T15:39:19.690Z,99.90
2018-08-13T15:41:51.385Z,99.90
2018-08-13T15:44:22.875Z,99.90
2018-08-13T15:46:54.101Z,99.90
2018-08-13T15:49:25.518Z,99.90
2018-08-13T15:51:57.001Z,99.90
2018-08-13T15:54:28.390Z,99.90
2018-08-13T15:56:59.701Z,99.90
2018-08-13T15:59:31.487Z,99.90
2018-08-13T16:02:03.156Z,99.90
2018-08-13T16:04:34.808Z,99.90
2018-08-13T16:07:09.657Z,99.90
2018-08-13T16:09:41.524Z,99.90
2018-08-13T16:12:13.201Z,99.90
2018-08-13T16:14:44.808Z,99.90
2018-08-13T16:17:16.374Z,99.90
2018-08-13T16:19:47.935Z,99.90
2018-08-13T16:22:19.379Z,99.90
2018-08-13T16:24:50.630Z,99.90
2018-08-13T16:27:22.170Z,99.90
2018-08-13T16:29:53.751Z,99.90
2018-08-13T16:32:25.314Z,99.90
2018-08-13T16:34:56.719Z,99.90
2018-08-13T16:37:28.054Z,99.90
2018-08-13T16:39:59.371Z,99.90
2018-08-13T16:42:30.653Z,99.90
2018-08-13T16:45:02.177Z,99.90
2018-08-13T16:47:33.500Z,99.90
2018-08-13T16:50:07.876Z,99.90
2018-08-13T16:52:39.367Z,99.90
2018-08-13T16:55:12.358Z,99.90
2018-08-13T16:57:44.331Z,99.90
2018-08-13T17:00:18.476Z,99.90
2018-08-13T17:02:50.354Z,99.90
2018-08-13T17:05:22.110Z,99.90
2018-08-13T17:07:53.837Z,99.90
2018-08-13T17:10:26.713Z,99.90
2018-08-13T17:12:58.688Z,99.90
2018-08-13T17:15:32.379Z,99.90
2018-08-13T17:18:04.361Z,99.90
2018-08-13T17:20:41.794Z,99.90
2018-08-13T17:23:13.407Z,99.90
2018-08-13T17:25:44.940Z,99.90
2018-08-13T17:28:17.949Z,99.90
2018-08-13T17:30:49.232Z,99.90
2018-08-13T17:33:20.764Z,99.90
2018-08-13T17:35:52.643Z,99.90
2018-08-13T17:38:24.151Z,99.90
2018-08-13T17:40:55.485Z,99.90
2018-08-13T17:43:26.895Z,99.90
2018-08-13T17:45:58.502Z,99.90
2018-08-13T17:48:29.930Z,99.90
2018-08-13T17:51:01.398Z,99.90
2018-08-13T17:53:32.903Z,99.90
2018-08-13T17:56:06.144Z,99.90
2018-08-13T17:58:37.408Z,99.90
2018-08-13T18:01:09.352Z,99.90
2018-08-13T18:03:40.827Z,99.90
2018-08-13T18:06:12.448Z,99.90
2018-08-13T18:08:43.709Z,99.90
2018-08-13T18:11:15.148Z,99.90
2018-08-13T18:13:46.960Z,99.90
2018-08-13T18:16:18.475Z,99.90
2018-08-13T18:18:49.941Z,99.90
2018-08-13T18:21:21.476Z,99.90
2018-08-13T18:23:52.974Z,99.90
2018-08-13T18:26:24.528Z,99.90
2018-08-13T18:28:56.044Z,99.90
2018-08-13T18:31:27.693Z,99.90
2018-08-13T18:33:59.434Z,99.90
2018-08-13T18:36:30.941Z,99.90
2018-08-13T18:39:02.708Z,99.90
2018-08-13T18:41:34.543Z,99.90
2018-08-13T18:44:06.805Z,99.90
2018-08-13T18:46:38.221Z,99.90
2018-08-13T18:49:09.602Z,99.90
2018-08-13T18:51:41.359Z,99.90
2018-08-13T18:54:12.579Z,99.90
2018-08-13T18:56:44.092Z,99.90
2018-08-13T18:59:16.100Z,99.90
2018-08-13T19:01:47.541Z,99.90
2018-08-13T19:04:19.044Z,99.90
2018-08-13T19:06:50.641Z,99.90
2018-08-13T19:09:22.076Z,99.90
2018-08-13T19:11:53.804Z,99.90
2018-08-13T19:14:25.428Z,99.90
2018-08-13T19:16:56.788Z,99.90
2018-08-13T19:19:28.119Z,99.90
2018-08-13T19:21:59.599Z,99.90
2018-08-13T19:24:31.680Z,99.90
2018-08-13T19:27:03.540Z,99.90
2018-08-13T19:29:35.098Z,99.90
2018-08-13T19:32:06.639Z,99.90
2018-08-13T19:34:38.099Z,99.90
2018-08-13T19:37:09.886Z,99.90
2018-08-13T19:39:41.744Z,99.90
2018-08-13T19:42:13.245Z,99.90
2018-08-13T19:44:44.568Z,99.90
2018-08-13T19:47:15.997Z,99.90
2018-08-13T19:49:47.851Z,99.90
2018-08-13T19:52:19.303Z,99.90
2018-08-13T19:54:50.858Z,99.90
2018-08-13T19:57:22.470Z,99.90
2018-08-13T19:59:54.716Z,99.90
2018-08-13T20:02:26.479Z,99.90
2018-08-13T20:04:57.966Z,99.90
2018-08-13T20:07:29.680Z,99.90
2018-08-13T20:10:01.506Z,99.90
2018-08-13T20:12:32.910Z,99.90
2018-08-13T20:15:04.449Z,99.90
2018-08-13T20:17:36.019Z,99.90
2018-08-13T20:20:11.358Z,99.90
2018-08-13T20:22:43.276Z,99.90
2018-08-13T20:25:16.318Z,99.90
2018-08-13T20:27:49.599Z,99.90
2018-08-13T20:30:22.986Z,99.90
2018-08-13T20:32:54.680Z,99.90
2018-08-13T20:35:26.219Z,99.90
2018-08-13T20:37:57.842Z,99.90
2018-08-13T20:40:29.588Z,99.90
2018-08-13T20:43:01.168Z,99.90
2018-08-13T20:45:32.948Z,99.90
2018-08-13T20:48:04.460Z,99.90
2018-08-13T20:50:35.920Z,99.90
2018-08-13T20:53:07.629Z,99.90
2018-08-13T20:55:39.052Z,99.90
2018-08-13T20:58:10.580Z,99.90
2018-08-13T21:00:42.193Z,99.90
2018-08-13T21:03:13.579Z,99.90
2018-08-13T21:05:45.210Z,99.90
2018-08-13T21:08:16.722Z,99.90
2018-08-13T21:10:48.516Z,99.90
2018-08-13T21:13:20.177Z,99.90
2018-08-13T21:15:51.836Z,99.90
2018-08-13T21:18:24.305Z,99.90
2018-08-13T21:20:56.167Z,99.90
2018-08-13T21:23:27.549Z,99.90
2018-08-13T21:25:59.079Z,99.90
2018-08-13T21:28:30.652Z,99.90
2018-08-13T21:31:02.271Z,99.90
2018-08-13T21:33:33.705Z,99.90
2018-08-13T21:36:05.094Z,99.90
2018-08-13T21:38:36.785Z,99.90
2018-08-13T21:41:08.466Z,99.90
2018-08-13T21:43:39.932Z,99.90
2018-08-13T21:46:11.577Z,99.90
2018-08-13T21:48:43.835Z,99.90
2018-08-13T21:51:15.251Z,99.90
2018-08-13T21:53:46.778Z,99.90
2018-08-13T21:56:18.204Z,99.90
2018-08-13T21:58:49.472Z,99.90
2018-08-13T22:01:25.860Z,99.90
2018-08-13T22:03:57.439Z,99.90
2018-08-13T22:06:28.932Z,99.90
2018-08-13T22:09:00.914Z,99.90
2018-08-13T22:11:32.336Z,99.90
2018-08-13T22:14:03.931Z,99.90
2018-08-13T22:16:35.450Z,99.90
2018-08-13T22:19:07.199Z,99.90
2018-08-13T22:21:38.751Z,99.90
2018-08-13T22:24:26.196Z,99.90
2018-08-13T22:26:57.722Z,99.90
2018-08-13T22:29:29.097Z,99.90
2018-08-13T22:32:00.917Z,99.90
2018-08-13T22:34:32.479Z,99.90
2018-08-13T22:37:03.904Z,99.90
2018-08-13T22:39:35.492Z,99.90
2018-08-13T22:42:07.001Z,99.90
2018-08-13T22:44:38.423Z,99.90
2018-08-13T22:47:09.866Z,99.90
2018-08-13T22:49:41.425Z,99.90
2018-08-13T22:52:12.797Z,99.90
2018-08-13T22:54:44.325Z,99.90
2018-08-13T22:57:15.839Z,99.90
2018-08-13T22:59:47.216Z,99.90
2018-08-13T23:02:18.713Z,99.90
2018-08-13T23:04:50.020Z,99.90
2018-08-13T23:07:21.434Z,99.90
2018-08-13T23:09:52.958Z,99.90
2018-08-13T23:12:24.279Z,99.90
2018-08-13T23:14:56.133Z,99.90
2018-08-13T23:17:27.362Z,99.90
2018-08-13T23:19:58.763Z,99.90
2018-08-13T23:22:58.147Z,99.90
2018-08-13T23:25:30.532Z,99.90
2018-08-13T23:28:02.932Z,99.90
2018-08-13T23:30:34.434Z,99.90
2018-08-13T23:33:07.355Z,99.90
2018-08-13T23:35:39.074Z,99.90
2018-08-13T23:38:10.204Z,99.90
2018-08-13T23:40:41.663Z,99.90
2018-08-13T23:43:14.082Z,99.90
2018-08-13T23:45:46.411Z,99.90
2018-08-13T23:48:18.236Z,99.90
2018-08-13T23:50:50.352Z,99.90
2018-08-13T23:53:21.952Z,99.90
2018-08-13T23:55:53.503Z,99.90
2018-08-13T23:58:25.125Z,99.90
